KCKM

Fletcher Field Airport

Clarksdale, Mississippi, USA
METAR KCKM 181255Z AUTO 00000KT 10SM BKN015 03/03 A3019 RMK A01
Observed Flight Rules
Dec-18 @ 12:55 UTC (13 minutes ago) Marginal Visual Flight Rules
Visibility Clouds
10 miles
  • Broken at 1,500' AGL
Temperatures Readings
Current 3°C / 37°F
Dewpoint 3°C / 37°F
Humidity 100%
Altimeter 30.19" Hg
Pressure 1022 hPa
Elevation 53
METAR KCKM 181255Z AUTO 00000KT 10SM BKN015 03/03 A3019 RMK A01
Observed Flight Rules
Dec-18 @ 12:55 UTC
(13 minutes ago)
MVFR
Clouds
  • Broken at 1,500' AGL
Temperature Dewpoint
3°C / 37°F 3°C / 37°F
Humidity Altimeter Pressure
100% 30.19" Hg 1022 hPa